Wetterverlauf

Letzte Wetterlage 31.10.2014 09:44
Wetterdiagramm
Tabellarische Darstellung
Datum Temperatur Windchill Feuchte Luftdruck Windrichtung Windstärke Niederschlag
31.10.2014 09:44 10,3 °C 10,3 °C 94 % 1023,4 hPa 0,00 mm
31.10.2014 09:23 10,4 °C 10,4 °C 94 % 1023,4 hPa 0,00 mm
31.10.2014 09:02 10,2 °C 10,2 °C 95 % 1023,4 hPa 0,00 mm
31.10.2014 08:42 9,9 °C 9,9 °C 95 % 1023,4 hPa 0,00 mm
31.10.2014 08:21 9,6 °C 9,6 °C 95 % 1023,4 hPa 0,00 mm
31.10.2014 08:01 9,2 °C 9,2 °C 95 % 1023,4 hPa 0,00 mm
31.10.2014 07:40 8,4 °C 8,4 °C 94 % 1022,4 hPa 0,00 mm
31.10.2014 07:19 8,7 °C 8,7 °C 95 % 1022,4 hPa 0,00 mm
31.10.2014 06:59 9,1 °C 9,1 °C 95 % 1022,4 hPa 0,00 mm
31.10.2014 06:39 9,3 °C 9,3 °C 95 % 1022,4 hPa 0,00 mm
31.10.2014 06:18 9,4 °C 9,4 °C 95 % 1022,4 hPa 0,00 mm
31.10.2014 05:58 9,5 °C 9,5 °C 95 % 1022,4 hPa 0,00 mm
31.10.2014 05:37 9,6 °C 9,6 °C 95 % 1022,4 hPa 0,00 mm
31.10.2014 05:17 9,6 °C 9,6 °C 95 % 1022,4 hPa 0,00 mm
31.10.2014 04:56 9,6 °C 9,6 °C 95 % 1022,4 hPa 0,00 mm
31.10.2014 04:36 9,6 °C 9,6 °C 95 % 1022,4 hPa 0,00 mm
31.10.2014 04:15 9,7 °C 9,7 °C 95 % 1022,4 hPa 0,00 mm
31.10.2014 03:55 9,7 °C 9,7 °C 95 % 1022,4 hPa 0,00 mm
31.10.2014 03:35 9,7 °C 9,7 °C 95 % 1022,4 hPa 0,00 mm
31.10.2014 03:14 9,8 °C 9,8 °C 95 % 1022,4 hPa 0,00 mm
31.10.2014 02:53 9,8 °C 9,8 °C 95 % 1022,4 hPa 0,00 mm
31.10.2014 02:33 9,8 °C 9,8 °C 95 % 1022,4 hPa 0,00 mm
31.10.2014 02:12 9,7 °C 9,7 °C 94 % 1022,4 hPa 0,00 mm
31.10.2014 01:51 9,7 °C 9,7 °C 94 % 1022,4 hPa 0,00 mm
31.10.2014 01:31 9,7 °C 9,7 °C 94 % 1023,4 hPa 0,00 mm
Empfehlen Sie wetter.com
| Mehr
Neue Wetterwarnung

Neue Niederschlagsmeldung
Neue Meldung
Regen Liveticker
    sehr starker Regen/Gewitter
    starker Regen/Gewitter
    mäßiger bis starker Regen
    mäßiger Regen
    leichter bis mäßiger Regen
    kein Regen